createdAt,value
2019-02-23T00:03:15.414Z,104.93
2019-02-23T00:08:33.977Z,141.57
2019-02-23T00:13:52.609Z,114.30
2019-02-23T00:19:11.234Z,109.97
2019-02-23T00:24:29.794Z,128.10
2019-02-23T00:29:48.359Z,180.27
2019-02-23T00:35:07.007Z,91.67
2019-02-23T00:40:25.514Z,99.67
2019-02-23T00:45:44.135Z,108.93
2019-02-23T00:51:02.691Z,125.40
2019-02-23T00:56:21.329Z,141.90
2019-02-23T01:01:39.884Z,208.40
2019-02-23T01:06:58.506Z,211.20
2019-02-23T01:12:17.132Z,121.47
2019-02-23T01:17:37.199Z,345.20
2019-02-23T01:22:56.427Z,82.70
2019-02-23T01:28:15.122Z,142.97
2019-02-23T01:33:33.743Z,125.93
2019-02-23T01:38:52.304Z,120.10
2019-02-23T01:44:10.795Z,268.03
2019-02-23T01:49:29.417Z,75.40
2019-02-23T01:54:48.258Z,77.00
2019-02-23T02:00:12.333Z,123.77
2019-02-23T02:05:30.958Z,96.57
2019-02-23T02:10:49.688Z,79.40
2019-02-23T02:16:08.380Z,86.07
2019-02-23T02:21:27.009Z,77.27
2019-02-23T02:26:45.493Z,85.77
2019-02-23T02:32:04.032Z,117.60
2019-02-23T02:37:22.890Z,74.87
2019-02-23T02:42:41.452Z,118.80
2019-02-23T02:48:00.091Z,70.33
2019-02-23T02:53:18.847Z,71.63
2019-02-23T02:58:37.669Z,276.57
2019-02-23T03:03:56.317Z,105.78
2019-02-23T03:09:14.929Z,74.17
2019-02-23T03:14:33.423Z,74.73
2019-02-23T03:19:51.991Z,80.60
2019-02-23T03:25:10.623Z,75.93
2019-02-23T03:30:29.236Z,71.93
2019-02-23T03:35:47.724Z,67.03
2019-02-23T03:41:06.371Z,53.23
2019-02-23T03:46:27.915Z,66.90
2019-02-23T03:51:46.500Z,131.33
2019-02-23T03:57:05.132Z,55.97
2019-02-23T04:02:23.822Z,83.27
2019-02-23T04:07:42.381Z,76.93
2019-02-23T04:13:00.946Z,68.10
2019-02-23T04:18:19.578Z,103.87
2019-02-23T04:23:38.187Z,56.03
2019-02-23T04:28:56.754Z,63.70
2019-02-23T04:34:15.306Z,70.67
2019-02-23T04:39:33.853Z,75.87
2019-02-23T04:44:52.490Z,58.37
2019-02-23T04:50:11.602Z,63.50
2019-02-23T04:55:30.093Z,84.32
2019-02-23T05:00:48.801Z,76.53
2019-02-23T05:06:07.590Z,68.47
2019-02-23T05:11:26.211Z,57.07
2019-02-23T05:16:44.833Z,57.30
2019-02-23T05:22:03.458Z,65.90
2019-02-23T05:27:22.197Z,73.80
2019-02-23T05:32:50.112Z,67.47
2019-02-23T05:38:10.299Z,81.40
2019-02-23T05:43:28.857Z,66.73
2019-02-23T05:48:47.421Z,70.28
2019-02-23T05:54:05.979Z,74.40
2019-02-23T05:59:24.831Z,73.10
2019-02-23T06:04:43.501Z,101.97
2019-02-23T06:10:02.124Z,64.70
2019-02-23T06:15:20.735Z,67.03
2019-02-23T06:20:39.330Z,86.47
2019-02-23T06:25:57.896Z,80.33
2019-02-23T06:31:16.665Z,95.83
2019-02-23T06:36:35.230Z,97.17
2019-02-23T06:41:53.796Z,92.50
2019-02-23T06:47:12.355Z,122.78
2019-02-23T06:52:30.925Z,108.10
2019-02-23T06:57:49.502Z,147.70
2019-02-23T07:03:07.991Z,205.30
2019-02-23T07:08:26.619Z,129.60
2019-02-23T07:13:45.095Z,113.23
2019-02-23T07:19:03.669Z,256.77
2019-02-23T07:24:22.152Z,213.05
2019-02-23T07:29:40.683Z,233.43
2019-02-23T07:35:01.982Z,201.63
2019-02-23T07:40:20.600Z,212.17
2019-02-23T07:45:39.215Z,71.40
2019-02-23T07:50:57.831Z,62.13
2019-02-23T07:56:16.384Z,43.27
2019-02-23T08:01:34.934Z,36.33
2019-02-23T08:06:53.552Z,38.43
2019-02-23T08:12:12.170Z,42.07
2019-02-23T08:17:30.771Z,118.60
2019-02-23T08:22:49.435Z,36.45
2019-02-23T08:28:14.077Z,28.37
2019-02-23T08:33:34.279Z,30.93
2019-02-23T08:38:53.043Z,36.50
2019-02-23T08:44:15.431Z,33.03
2019-02-23T08:49:35.266Z,27.70
2019-02-23T08:54:53.915Z,33.03
2019-02-23T09:00:17.718Z,27.23
2019-02-23T09:05:36.303Z,21.93
2019-02-23T09:10:54.857Z,27.03
2019-02-23T09:16:13.413Z,25.57
2019-02-23T09:21:32.037Z,25.13
2019-02-23T09:26:50.593Z,25.17
2019-02-23T09:32:10.855Z,21.67
2019-02-23T09:37:29.654Z,23.17
2019-02-23T09:42:48.259Z,24.20
2019-02-23T09:48:06.902Z,19.30
2019-02-23T09:53:25.608Z,21.17
2019-02-23T09:58:44.142Z,19.97
2019-02-23T10:04:02.632Z,19.73
2019-02-23T10:09:21.192Z,18.33
2019-02-23T10:14:39.730Z,17.10
2019-02-23T10:19:58.394Z,15.93
2019-02-23T10:25:17.032Z,12.85
2019-02-23T10:30:35.606Z,17.70
2019-02-23T10:35:54.166Z,12.47
2019-02-23T10:41:12.963Z,11.57
2019-02-23T10:46:31.557Z,12.67
2019-02-23T10:51:50.434Z,13.23
2019-02-23T10:57:09.088Z,12.13
2019-02-23T11:02:27.715Z,10.37
2019-02-23T11:07:46.342Z,8.67
2019-02-23T11:13:05.053Z,10.17
2019-02-23T11:18:23.606Z,11.27
2019-02-23T11:23:44.450Z,13.23
2019-02-23T11:29:02.891Z,10.67
2019-02-23T11:34:21.519Z,10.70
2019-02-23T11:39:40.137Z,10.93
2019-02-23T11:44:58.777Z,10.57
2019-02-23T11:50:17.405Z,11.33
2019-02-23T11:55:36.120Z,7.87
2019-02-23T12:00:55.259Z,8.33
2019-02-23T12:06:14.004Z,6.30
2019-02-23T12:11:32.475Z,9.80
2019-02-23T12:16:52.171Z,10.93
2019-02-23T12:22:12.629Z,10.33
2019-02-23T12:27:31.167Z,8.93
2019-02-23T12:32:49.956Z,10.07
2019-02-23T12:38:08.603Z,10.67
2019-02-23T12:43:27.086Z,15.30
2019-02-23T12:48:46.837Z,20.53
2019-02-23T12:54:05.372Z,13.90
2019-02-23T12:59:23.919Z,8.80
2019-02-23T13:04:42.490Z,13.73
2019-02-23T13:10:01.003Z,10.00
2019-02-23T13:15:25.643Z,7.83
2019-02-23T13:20:47.140Z,8.20
2019-02-23T13:26:20.362Z,8.63
2019-02-23T13:32:01.689Z,7.57
2019-02-23T13:37:44.554Z,6.50
2019-02-23T13:43:30.245Z,6.77
2019-02-23T13:49:03.669Z,9.03
2019-02-23T13:54:39.061Z,8.90
2019-02-23T14:00:00.689Z,11.87
2019-02-23T14:05:27.839Z,10.00
2019-02-23T14:11:13.679Z,7.57
2019-02-23T14:16:59.554Z,7.47
2019-02-23T14:22:24.005Z,8.90
2019-02-23T14:28:00.885Z,9.60
2019-02-23T14:33:40.686Z,8.67
2019-02-23T14:39:28.086Z,7.73
2019-02-23T14:45:06.224Z,5.10
2019-02-23T14:50:46.060Z,14.67
2019-02-23T14:56:07.579Z,7.67
2019-02-23T15:01:34.772Z,11.67
2019-02-23T15:06:56.313Z,6.70
2019-02-23T15:12:45.408Z,13.23
2019-02-23T15:18:37.581Z,7.07
2019-02-23T15:24:18.545Z,8.13
2019-02-23T15:29:52.107Z,9.27
2019-02-23T15:35:25.691Z,6.70
2019-02-23T15:41:13.077Z,7.90
2019-02-23T15:46:33.556Z,8.13
2019-02-23T15:51:52.223Z,6.53
2019-02-23T15:57:10.824Z,10.50
2019-02-23T16:02:29.449Z,8.90
2019-02-23T16:07:48.080Z,22.30
2019-02-23T16:13:06.707Z,21.97
2019-02-23T16:18:25.260Z,14.20
2019-02-23T16:23:43.736Z,8.77
2019-02-23T16:29:02.352Z,28.20
2019-02-23T16:34:20.970Z,11.87
2019-02-23T16:39:40.558Z,8.50
2019-02-23T16:44:59.389Z,12.53
2019-02-23T16:50:17.946Z,11.95
2019-02-23T16:55:36.657Z,5.77
2019-02-23T17:00:55.265Z,9.37
2019-02-23T17:06:13.908Z,9.57
2019-02-23T17:11:32.454Z,8.20
2019-02-23T17:16:51.149Z,8.60
2019-02-23T17:22:09.779Z,12.47
2019-02-23T17:27:36.174Z,10.17
2019-02-23T17:32:48.574Z,9.13
2019-02-23T17:38:16.808Z,12.65
2019-02-23T17:43:27.344Z,11.57
2019-02-23T17:48:45.891Z,18.53
2019-02-23T17:54:04.519Z,9.97
2019-02-23T17:59:23.008Z,11.93
2019-02-23T18:04:41.637Z,21.93
2019-02-23T18:10:00.278Z,13.35
2019-02-23T18:15:18.911Z,13.60
2019-02-23T18:20:37.390Z,19.73
2019-02-23T18:25:55.975Z,15.77
2019-02-23T18:31:14.464Z,17.63
2019-02-23T18:36:33.008Z,10.27
2019-02-23T18:41:51.484Z,16.27
2019-02-23T18:47:09.949Z,12.93
2019-02-23T18:52:28.494Z,20.07
2019-02-23T18:57:47.119Z,13.60
2019-02-23T19:03:05.705Z,12.80
2019-02-23T19:08:24.259Z,11.47
2019-02-23T19:13:42.877Z,12.10
2019-02-23T19:19:01.433Z,15.47
2019-02-23T19:24:20.055Z,19.13
2019-02-23T19:29:38.765Z,17.33
2019-02-23T19:34:57.392Z,489.63
2019-02-23T19:40:16.030Z,169.82
2019-02-23T19:45:34.643Z,46.70
2019-02-23T19:50:56.395Z,16.10
2019-02-23T19:56:14.973Z,18.87
2019-02-23T20:01:33.608Z,13.27
2019-02-23T20:06:52.188Z,12.93
2019-02-23T20:12:10.881Z,13.80
2019-02-23T20:17:42.304Z,17.70
2019-02-23T20:23:01.564Z,12.50
2019-02-23T20:28:20.138Z,13.18
2019-02-23T20:33:38.624Z,17.37
2019-02-23T20:38:57.192Z,13.53
2019-02-23T20:44:16.501Z,20.87
2019-02-23T20:49:36.523Z,36.00
2019-02-23T20:54:55.684Z,16.90
2019-02-23T21:00:16.002Z,18.27
2019-02-23T21:05:34.651Z,20.30
2019-02-23T21:11:00.175Z,19.10
2019-02-23T21:16:18.664Z,15.60
2019-02-23T21:21:37.290Z,21.70
2019-02-23T21:26:55.908Z,18.07
2019-02-23T21:32:14.451Z,14.83
2019-02-23T21:37:33.344Z,16.17
2019-02-23T21:42:51.916Z,17.10
2019-02-23T21:48:11.994Z,14.87
2019-02-23T21:53:32.089Z,13.93
2019-02-23T21:58:50.717Z,19.70
2019-02-23T22:04:09.402Z,14.18
2019-02-23T22:09:27.942Z,16.60
2019-02-23T22:14:47.545Z,22.80
2019-02-23T22:20:10.097Z,20.40
2019-02-23T22:25:29.092Z,15.40
2019-02-23T22:30:47.633Z,14.57
2019-02-23T22:36:06.268Z,18.30
2019-02-23T22:41:25.380Z,17.27
2019-02-23T22:46:44.049Z,15.17
2019-02-23T22:52:02.741Z,18.80
2019-02-23T22:57:21.293Z,15.57
2019-02-23T23:02:40.002Z,14.50
2019-02-23T23:07:58.548Z,18.97
2019-02-23T23:13:17.165Z,15.70
2019-02-23T23:18:36.093Z,15.67
2019-02-23T23:23:54.753Z,13.93
2019-02-23T23:29:13.324Z,12.25
2019-02-23T23:34:31.947Z,14.03
2019-02-23T23:39:50.582Z,15.32
2019-02-23T23:45:09.223Z,13.03
2019-02-23T23:50:28.232Z,14.00
2019-02-23T23:55:46.858Z,18.97
